Time;durP1;ratioP1;P1;durP2;ratioP2;P2;SDS_P1;SDS_P2;PMS_P1;PMS_P2;Temp;Humidity;BMP_temperature;BMP_pressure;BME280_temperature;BME280_humidity;BME280_pressure;Samples;Min_cycle;Max_cycle;Signal;HPM_P1;HPM_P2
2021/10/16 00:01:20;;;;;;;8.45;0.63;;;;;;;10.04;42.68;98275.88;5052766;28;20088;-64
2021/10/16 00:03:46;;;;;;;0.43;0.43;;;;;;;10.01;42.74;98284.56;5053557;28;20045;-62
2021/10/16 00:06:12;;;;;;;0.80;0.80;;;;;;;9.99;42.84;98284.00;5052433;28;20052;-63
2021/10/16 00:08:38;;;;;;;0.30;0.30;;;;;;;9.97;42.59;98288.91;5053381;28;20044;-63
2021/10/16 00:11:05;;;;;;;0.20;0.20;;;;;;;9.96;42.49;98281.72;5053251;28;20045;-63
2021/10/16 00:13:31;;;;;;;0.47;0.40;;;;;;;9.95;42.78;98271.84;5053145;28;20041;-64
2021/10/16 00:15:57;;;;;;;0.40;0.40;;;;;;;9.96;42.63;98277.06;5053037;28;20485;-63
2021/10/16 00:18:23;;;;;;;0.20;0.20;;;;;;;9.96;42.68;98277.06;5053262;28;20463;-63
2021/10/16 00:20:49;;;;;;;1.17;0.75;;;;;;;9.97;42.81;98269.69;5053455;28;20045;-63
2021/10/16 00:23:15;;;;;;;0.10;0.10;;;;;;;9.97;42.56;98272.44;5035274;28;20079;-63
2021/10/16 00:25:41;;;;;;;0.20;0.20;;;;;;;9.98;42.72;98279.56;5052880;28;20444;-63
2021/10/16 00:28:06;;;;;;;0.32;0.32;;;;;;;9.97;42.74;98277.94;5053093;28;20049;-64
2021/10/16 00:30:32;;;;;;;0.10;0.10;;;;;;;9.96;42.77;98260.63;5052790;28;20044;-64
2021/10/16 00:32:58;;;;;;;0.30;0.30;;;;;;;9.95;42.50;98261.72;5053267;28;20499;-63
2021/10/16 00:35:24;;;;;;;1.00;0.85;;;;;;;9.99;42.70;98264.78;5052885;28;20068;-64
2021/10/16 00:37:49;;;;;;;1.08;0.70;;;;;;;9.99;42.60;98265.59;5052885;28;20538;-64
2021/10/16 00:40:15;;;;;;;0.20;0.20;;;;;;;10.00;42.42;98256.31;5053221;28;20446;-65
2021/10/16 00:42:49;;;;;;;0.32;0.32;;;;;;;9.99;42.49;98254.63;5052811;28;20044;-64
2021/10/16 00:45:16;;;;;;;0.30;0.30;;;;;;;9.98;42.46;98266.72;5052540;28;20036;-64
2021/10/16 00:47:42;;;;;;;0.20;0.20;;;;;;;9.98;42.47;98258.47;5052739;28;20041;-62
2021/10/16 00:50:09;;;;;;;0.10;0.10;;;;;;;9.97;42.67;98264.22;5052845;28;20086;-63
2021/10/16 00:52:37;;;;;;;0.30;0.30;;;;;;;9.99;42.49;98264.78;5052496;28;20052;-63
2021/10/16 00:55:03;;;;;;;3.97;0.52;;;;;;;9.98;42.59;98253.00;5052457;28;20048;-63
2021/10/16 00:57:30;;;;;;;0.30;0.30;;;;;;;10.00;42.79;98255.50;5052728;28;20148;-63
2021/10/16 00:59:56;;;;;;;0.82;0.65;;;;;;;10.01;42.57;98251.66;5051939;28;20099;-62
2021/10/16 01:02:22;;;;;;;0.60;0.60;;;;;;;10.00;42.54;98250.81;5052585;28;20442;-63
2021/10/16 01:04:48;;;;;;;1.55;0.52;;;;;;;10.01;42.48;98262.63;5034325;28;20048;-63
2021/10/16 01:07:14;;;;;;;0.30;0.30;;;;;;;10.02;42.70;98258.81;5052399;28;20420;-65
2021/10/16 01:09:45;;;;;;;0.20;0.20;;;;;;;10.01;42.59;98262.63;5052391;28;20411;-63
2021/10/16 01:12:11;;;;;;;2.20;1.27;;;;;;;9.98;42.82;98255.75;5052282;28;20045;-64
2021/10/16 01:14:58;;;;;;;0.52;0.52;;;;;;;9.98;42.84;98253.00;5052485;28;20036;-62
2021/10/16 01:17:25;;;;;;;0.30;0.30;;;;;;;9.97;42.95;98251.31;5051767;28;20041;-64
2021/10/16 01:20:12;;;;;;;0.73;0.73;;;;;;;10.00;42.71;98239.03;5052009;28;20045;-63
2021/10/16 01:22:40;;;;;;;0.52;0.52;;;;;;;10.01;42.57;98251.66;5052509;28;20048;-64
2021/10/16 01:25:09;;;;;;;0.30;0.30;;;;;;;10.00;42.72;98250.00;5052102;28;20052;-62
2021/10/16 01:27:37;;;;;;;0.20;0.20;;;;;;;10.02;42.69;98249.75;5051940;28;20051;-63
2021/10/16 01:30:04;;;;;;;0.15;0.15;;;;;;;10.01;42.92;98254.41;5051659;28;20044;-63
2021/10/16 01:32:30;;;;;;;0.20;0.20;;;;;;;9.99;42.64;98257.38;5051686;28;20041;-63
2021/10/16 01:34:56;;;;;;;0.30;0.30;;;;;;;9.98;42.74;98252.16;5051542;28;20128;-64
2021/10/16 01:37:21;;;;;;;0.63;0.63;;;;;;;9.96;42.83;98249.66;5052169;28;20140;-64
2021/10/16 01:39:47;;;;;;;0.20;0.20;;;;;;;9.92;42.88;98253.13;5052646;28;20049;-65
2021/10/16 01:42:14;;;;;;;0.70;0.40;;;;;;;9.89;42.79;98248.13;5052063;28;20501;-65
2021/10/16 01:44:41;;;;;;;0.85;0.75;;;;;;;9.86;43.15;98252.19;5051760;28;20385;-63
2021/10/16 01:47:07;;;;;;;0.38;0.38;;;;;;;9.81;43.14;98255.66;5051712;28;20127;-64
2021/10/16 01:49:33;;;;;;;0.45;0.43;;;;;;;9.77;43.17;98251.75;5033866;28;20470;-63
2021/10/16 01:51:59;;;;;;;2.92;0.40;;;;;;;9.73;43.42;98264.28;5051921;28;20127;-63
2021/10/16 01:54:25;;;;;;;0.40;0.40;;;;;;;9.70;43.36;98248.34;5051617;28;20119;-64
2021/10/16 01:56:50;;;;;;;0.50;0.50;;;;;;;9.69;43.63;98259.50;5051826;28;20041;-65
2021/10/16 01:59:21;;;;;;;0.30;0.30;;;;;;;9.67;43.59;98257.00;5051296;28;20037;-63
2021/10/16 02:01:47;;;;;;;0.30;0.30;;;;;;;9.66;43.55;98247.16;5033600;28;20442;-64
2021/10/16 02:04:14;;;;;;;0.65;0.40;;;;;;;9.65;43.58;98251.78;5051708;28;20052;-64
2021/10/16 02:06:41;;;;;;;0.20;0.20;;;;;;;9.64;43.81;98241.91;5051540;28;20053;-65
2021/10/16 02:09:07;;;;;;;0.30;0.30;;;;;;;9.63;43.65;98258.59;5051699;28;20044;-65
2021/10/16 02:11:33;;;;;;;0.73;0.60;;;;;;;9.60;43.95;98253.59;5051387;28;20037;-64
2021/10/16 02:14:00;;;;;;;0.20;0.20;;;;;;;9.58;43.93;98247.50;5051386;28;20120;-65
2021/10/16 02:16:27;;;;;;;0.25;0.25;;;;;;;9.56;43.79;98249.69;5051504;28;20071;-63
2021/10/16 02:18:53;;;;;;;0.30;0.30;;;;;;;9.52;43.98;98245.75;5051606;28;20144;-64
2021/10/16 02:21:19;;;;;;;0.50;0.50;;;;;;;9.49;44.16;98248.97;5051449;28;20408;-62
2021/10/16 02:23:45;;;;;;;0.65;0.65;;;;;;;9.42;44.21;98252.69;5051564;28;20529;-63
2021/10/16 02:26:11;;;;;;;0.60;0.60;;;;;;;9.39;44.46;98261.38;5051709;28;20044;-66
2021/10/16 02:28:37;;;;;;;0.20;0.20;;;;;;;9.36;44.59;98256.38;5051153;28;20045;-65
2021/10/16 02:31:03;;;;;;;1.52;0.70;;;;;;;9.32;44.73;98252.47;5054251;28;20033;-65
2021/10/16 02:33:28;;;;;;;0.30;0.30;;;;;;;9.31;44.83;98256.28;5055158;28;20557;-64
2021/10/16 02:35:54;;;;;;;0.50;0.50;;;;;;;9.31;44.76;98259.00;5054937;28;20041;-65
2021/10/16 02:38:20;;;;;;;0.47;0.40;;;;;;;9.32;44.81;98259.84;5054756;28;20037;-64
2021/10/16 02:40:45;;;;;;;1.17;0.80;;;;;;;9.28;44.86;98265.78;5054934;28;20136;-64
2021/10/16 02:43:11;;;;;;;1.08;0.40;;;;;;;9.25;45.07;98273.66;5054881;28;20045;-65
2021/10/16 02:45:37;;;;;;;0.40;0.40;;;;;;;9.23;45.16;98273.06;5054986;28;20136;-65
2021/10/16 02:48:03;;;;;;;0.25;0.25;;;;;;;9.23;45.26;98271.19;5054688;28;20045;-65
2021/10/16 02:50:29;;;;;;;0.40;0.40;;;;;;;9.25;45.14;98269.00;5054647;28;20464;-65
2021/10/16 02:52:55;;;;;;;0.35;0.35;;;;;;;9.31;45.25;98275.44;5055077;28;20064;-65
2021/10/16 02:55:20;;;;;;;0.50;0.50;;;;;;;9.38;45.11;98281.63;5054961;28;20084;-67
2021/10/16 02:57:46;;;;;;;0.30;0.30;;;;;;;9.43;45.25;98278.16;5054450;28;20041;-66
2021/10/16 03:00:12;;;;;;;0.30;0.30;;;;;;;9.43;45.04;98273.50;5054307;28;20076;-65
2021/10/16 03:02:38;;;;;;;0.55;0.55;;;;;;;9.44;45.41;98268.88;5054570;28;20052;-65
2021/10/16 03:05:04;;;;;;;0.30;0.30;;;;;;;9.44;45.52;98269.72;5054113;28;20065;-65
2021/10/16 03:07:30;;;;;;;0.73;0.73;;;;;;;9.47;45.40;98276.63;5052310;28;20522;-66
2021/10/16 03:09:56;;;;;;;0.43;0.43;;;;;;;9.52;45.29;98278.63;5052002;28;20072;-65
2021/10/16 03:12:21;;;;;;;0.30;0.30;;;;;;;9.53;45.67;98275.66;5051602;28;20037;-65
2021/10/16 03:14:47;;;;;;;9.43;1.60;;;;;;;9.56;45.46;98288.06;5051715;28;20040;-66
2021/10/16 03:17:13;;;;;;;0.52;0.43;;;;;;;9.54;45.88;98302.00;5052048;28;20040;-64
2021/10/16 03:19:39;;;;;;;0.55;0.55;;;;;;;9.55;45.86;98303.63;5052129;28;20045;-66
2021/10/16 03:22:05;;;;;;;0.30;0.30;;;;;;;9.54;46.02;98301.13;5053322;28;20049;-65
2021/10/16 03:24:31;;;;;;;0.47;0.47;;;;;;;9.52;46.21;98297.81;5053440;28;20076;-65
2021/10/16 03:26:57;;;;;;;1.30;1.20;;;;;;;9.50;46.13;98310.94;5053552;28;20048;-65
2021/10/16 03:29:23;;;;;;;0.20;0.20;;;;;;;9.46;46.52;98324.28;5053322;28;20051;-65
2021/10/16 03:31:48;;;;;;;0.30;0.30;;;;;;;9.44;46.59;98318.22;5053671;28;20045;-65
2021/10/16 03:34:14;;;;;;;0.40;0.40;;;;;;;9.44;46.65;98319.03;5053899;28;20068;-66
2021/10/16 03:36:40;;;;;;;0.45;0.45;;;;;;;9.39;46.62;98316.19;5053599;28;20052;-65
2021/10/16 03:39:05;;;;;;;0.47;0.47;;;;;;;9.37;47.05;98328.47;5035330;28;20103;-66
2021/10/16 03:41:31;;;;;;;0.20;0.20;;;;;;;9.37;46.85;98328.47;5053242;28;20048;-62
2021/10/16 03:43:57;;;;;;;0.22;0.22;;;;;;;9.37;46.98;98323.81;5053352;28;20044;-66
2021/10/16 03:46:23;;;;;;;1.25;0.40;;;;;;;9.43;46.65;98331.06;5053471;28;20044;-66
2021/10/16 03:48:49;;;;;;;0.65;0.55;;;;;;;9.46;46.97;98325.09;5035664;28;20053;-66
2021/10/16 03:51:14;;;;;;;28.60;1.08;;;;;;;9.50;46.92;98319.16;5033557;28;20038;-64
2021/10/16 03:53:40;;;;;;;0.40;0.40;;;;;;;9.51;46.86;98313.44;5033871;28;20061;-65
2021/10/16 03:56:06;;;;;;;0.20;0.20;;;;;;;9.50;46.86;98321.91;5033113;28;20414;-66
2021/10/16 03:58:32;;;;;;;0.25;0.25;;;;;;;9.48;46.85;98327.59;5015496;28;20564;-65
2021/10/16 04:01:02;;;;;;;0.20;0.20;;;;;;;9.43;46.72;98332.97;5032814;28;20176;-64
2021/10/16 04:03:29;;;;;;;0.25;0.25;;;;;;;9.38;47.03;98343.81;5033278;28;20053;-64
2021/10/16 04:05:56;;;;;;;0.20;0.20;;;;;;;9.39;47.10;98351.81;5032838;28;20551;-64
2021/10/16 04:08:22;;;;;;;0.20;0.20;;;;;;;9.38;46.91;98352.88;5032389;28;20496;-65
2021/10/16 04:10:49;;;;;;;0.20;0.20;;;;;;;9.36;47.01;98359.66;5032183;28;20038;-65
2021/10/16 04:13:15;;;;;;;0.30;0.30;;;;;;;9.32;47.09;98366.69;5032442;28;20116;-63
2021/10/16 04:15:41;;;;;;;0.30;0.30;;;;;;;9.31;47.38;98374.06;5031905;28;20107;-71
2021/10/16 04:18:06;;;;;;;0.88;0.75;;;;;;;9.29;47.23;98363.34;5031113;28;20077;-66
2021/10/16 04:20:33;;;;;;;0.32;0.32;;;;;;;9.31;47.08;98365.84;5032718;28;20494;-65
2021/10/16 04:22:59;;;;;;;0.52;0.52;;;;;;;9.22;47.19;98373.59;5032059;28;20077;-66
2021/10/16 04:25:25;;;;;;;0.20;0.20;;;;;;;9.17;47.33;98378.09;5031839;28;20500;-66
2021/10/16 04:27:51;;;;;;;1.08;0.30;;;;;;;9.12;47.35;98376.91;5032155;28;20518;-65
2021/10/16 04:30:17;;;;;;;0.10;0.10;;;;;;;9.08;47.29;98380.34;5032973;28;20045;-65
2021/10/16 04:32:43;;;;;;;1.33;1.25;;;;;;;9.07;47.45;98382.28;5051969;28;20045;-64
2021/10/16 04:35:10;;;;;;;0.65;0.25;;;;;;;9.07;47.34;98379.53;5051769;28;20072;-67
2021/10/16 04:37:36;;;;;;;0.20;0.20;;;;;;;9.05;47.31;98378.91;5051828;28;20052;-67
2021/10/16 04:40:25;;;;;;;0.20;0.20;;;;;;;9.03;47.19;98382.97;5051767;28;20573;-65
2021/10/16 04:42:51;;;;;;;0.20;0.20;;;;;;;8.91;47.38;98392.00;5051009;28;20033;-64
2021/10/16 04:45:18;;;;;;;0.20;0.20;;;;;;;8.87;47.50;98395.44;5042822;28;20045;-64
2021/10/16 04:47:44;;;;;;;0.20;0.20;;;;;;;8.82;47.23;98381.59;5041398;28;20033;-65
2021/10/16 04:50:11;;;;;;;0.50;0.35;;;;;;;8.85;47.46;98394.81;5031538;28;20141;-63
2021/10/16 04:52:37;;;;;;;0.30;0.30;;;;;;;8.86;47.22;98410.19;5030754;28;20045;-63
2021/10/16 04:55:04;;;;;;;0.30;0.30;;;;;;;8.91;47.00;98380.22;5031298;28;20069;-65
2021/10/16 04:57:30;;;;;;;0.35;0.35;;;;;;;8.94;47.14;98394.25;5050973;28;20440;-67
2021/10/16 04:59:56;;;;;;;1.08;0.88;;;;;;;8.99;47.06;98390.00;5042821;28;20059;-71
2021/10/16 05:02:24;;;;;;;0.20;0.20;;;;;;;8.97;47.21;98392.97;5040712;28;20480;-68
2021/10/16 05:04:51;;;;;;;0.20;0.20;;;;;;;8.92;47.29;98388.19;4985660;28;1524293;-64
2021/10/16 05:07:17;;;;;;;0.20;0.20;;;;;;;8.90;47.13;98389.50;5040951;28;20063;-65
2021/10/16 05:09:45;;;;;;;0.38;0.38;;;;;;;8.91;47.25;98382.97;5041203;28;20035;-66
2021/10/16 05:12:10;;;;;;;0.20;0.20;;;;;;;8.91;47.27;98388.44;5039592;28;20048;-64
2021/10/16 05:14:36;;;;;;;0.47;0.47;;;;;;;8.88;47.11;98392.47;5040799;28;20041;-64
2021/10/16 05:17:02;;;;;;;0.30;0.30;;;;;;;8.87;47.23;98393.53;5040954;28;20073;-65
2021/10/16 05:19:28;;;;;;;0.22;0.22;;;;;;;8.85;47.51;98386.59;5016934;28;20515;-67
2021/10/16 05:21:53;;;;;;;0.20;0.20;;;;;;;8.83;47.55;98395.06;5031853;28;20056;-68
2021/10/16 05:24:19;;;;;;;0.20;0.20;;;;;;;8.81;47.56;98397.22;5032033;28;20191;-65
2021/10/16 05:26:45;;;;;;;0.20;0.20;;;;;;;8.86;47.39;98391.88;5031777;28;20041;-68
2021/10/16 05:29:10;;;;;;;0.52;0.52;;;;;;;8.96;47.20;98393.22;5032291;28;20086;-68
2021/10/16 05:31:36;;;;;;;0.20;0.20;;;;;;;8.99;47.11;98382.59;5037177;28;20048;-65
2021/10/16 05:34:02;;;;;;;0.43;0.43;;;;;;;9.07;47.14;98384.19;5040417;28;20055;-68
2021/10/16 05:36:27;;;;;;;0.30;0.30;;;;;;;9.08;47.07;98394.06;5040757;28;20427;-66
2021/10/16 05:38:53;;;;;;;0.82;0.82;;;;;;;9.01;47.18;98393.31;5039173;28;20049;-64
2021/10/16 05:41:19;;;;;;;0.20;0.20;;;;;;;8.92;47.34;98401.03;5040955;28;20033;-66
2021/10/16 05:43:45;;;;;;;0.32;0.32;;;;;;;8.88;47.67;98408.91;5040734;28;20132;-69
2021/10/16 05:46:11;;;;;;;0.45;0.45;;;;;;;8.77;48.01;98410.53;5039269;28;20480;-68
2021/10/16 05:48:37;;;;;;;0.25;0.25;;;;;;;8.66;48.09;98413.25;5040963;28;20064;-66
2021/10/16 05:51:03;;;;;;;0.28;0.28;;;;;;;8.66;47.90;98405.84;5040530;28;20503;-67
2021/10/16 05:53:28;;;;;;;0.20;0.20;;;;;;;8.68;48.03;98403.72;5039460;28;20132;-65
2021/10/16 05:55:54;;;;;;;0.30;0.30;;;;;;;8.63;48.12;98398.13;5038756;28;20033;-65
2021/10/16 05:58:20;;;;;;;0.20;0.20;;;;;;;8.57;48.16;98380.72;5035132;28;20049;-66
2021/10/16 06:01:20;;;;;;;0.20;0.20;;;;;;;8.49;48.15;98386.50;5030862;28;20034;-66
2021/10/16 06:03:46;;;;;;;0.80;0.80;;;;;;;8.46;48.37;98395.16;5031392;28;20479;-70
2021/10/16 06:06:12;;;;;;;0.20;0.20;;;;;;;8.54;48.13;98391.31;5049024;28;20225;-67
2021/10/16 06:08:37;;;;;;;0.20;0.20;;;;;;;8.59;48.12;98385.94;5022247;28;20053;-67
2021/10/16 06:11:03;;;;;;;0.20;0.20;;;;;;;8.66;47.84;98378.47;5043897;28;20086;-64
2021/10/16 06:13:29;;;;;;;0.20;0.20;;;;;;;8.70;47.70;98374.22;5034383;28;20052;-66
2021/10/16 06:15:55;;;;;;;0.20;0.20;;;;;;;8.69;47.74;98372.53;5048017;28;20551;-66
2021/10/16 06:18:24;;;;;;;0.20;0.20;;;;;;;8.63;48.00;98368.00;5033626;28;20519;-66
2021/10/16 06:20:49;;;;;;;0.20;0.20;;;;;;;8.56;48.05;98367.25;5048186;28;20110;-67
2021/10/16 06:23:15;;;;;;;0.52;0.52;;;;;;;8.59;48.22;98372.28;5033259;28;20492;-66
2021/10/16 06:25:41;;;;;;;0.47;0.47;;;;;;;8.57;48.10;98385.38;5038109;28;20136;-64
2021/10/16 06:28:07;;;;;;;0.20;0.20;;;;;;;8.57;48.13;98379.88;5035239;28;20096;-67
2021/10/16 06:30:32;;;;;;;0.30;0.30;;;;;;;8.53;48.33;98356.78;5041971;28;20041;-64
2021/10/16 06:32:58;;;;;;;0.20;0.20;;;;;;;8.49;48.21;98372.81;5039754;28;20108;-63
2021/10/16 06:35:24;;;;;;;0.20;0.20;;;;;;;8.53;48.17;98367.72;5051166;28;20055;-64
2021/10/16 06:37:49;;;;;;;0.15;0.15;;;;;;;8.55;48.09;98362.84;5049506;28;20076;-64
2021/10/16 06:40:15;;;;;;;0.20;0.20;;;;;;;8.59;47.94;98348.47;5031169;28;20049;-64
2021/10/16 06:42:41;;;;;;;12.52;0.90;;;;;;;8.70;47.60;98344.09;5030669;28;20553;-77
2021/10/16 06:45:07;;;;;;;0.85;0.40;;;;;;;8.83;47.43;98340.31;5030275;28;20116;-63
2021/10/16 06:47:32;;;;;;;0.65;0.65;;;;;;;8.94;47.03;98352.38;5016875;28;20064;-66
2021/10/16 06:49:58;;;;;;;0.20;0.20;;;;;;;9.06;47.22;98357.88;5039953;28;20045;-65
2021/10/16 06:52:24;;;;;;;0.43;0.43;;;;;;;9.18;46.98;98355.13;5052025;28;20045;-65
2021/10/16 06:54:50;;;;;;;0.20;0.20;;;;;;;9.25;46.74;98358.59;5034349;28;20041;-66
2021/10/16 06:57:15;;;;;;;25.48;1.02;;;;;;;9.34;46.79;98359.06;5046109;28;20052;-65
2021/10/16 06:59:41;;;;;;;0.20;0.20;;;;;;;9.43;46.39;98358.47;5031324;28;20041;-65
2021/10/16 07:02:07;;;;;;;1.10;0.40;;;;;;;9.59;46.33;98358.81;5039351;28;20049;-71
2021/10/16 07:04:33;;;;;;;0.52;0.52;;;;;;;9.83;45.88;98367.84;5051952;28;20060;-66
2021/10/16 07:06:59;;;;;;;0.32;0.32;;;;;;;10.06;45.68;98363.41;5051589;28;20056;-68
2021/10/16 07:09:25;;;;;;;0.30;0.30;;;;;;;10.24;45.53;98360.47;5024635;28;20045;-66
2021/10/16 07:11:50;;;;;;;0.20;0.20;;;;;;;10.31;45.25;98376.81;5035107;28;20025;-67
2021/10/16 07:14:16;;;;;;;0.15;0.15;;;;;;;10.30;45.53;98369.63;5023959;28;20042;-67
2021/10/16 07:16:43;;;;;;;0.20;0.20;;;;;;;10.20;45.88;98363.94;5032842;28;20169;-66
2021/10/16 07:19:09;;;;;;;0.47;0.47;;;;;;;10.11;45.90;98355.25;5037374;28;20077;-65
2021/10/16 07:21:35;;;;;;;0.20;0.20;;;;;;;10.00;46.00;98360.53;5032805;28;20048;-67
2021/10/16 07:24:01;;;;;;;0.32;0.32;;;;;;;9.78;46.62;98360.34;5033235;28;20075;-66
2021/10/16 07:26:29;;;;;;;0.22;0.22;;;;;;;9.67;46.72;98355.69;5032372;28;20061;-65
2021/10/16 07:28:55;;;;;;;0.20;0.20;;;;;;;9.52;47.04;98366.34;5035177;28;20511;-70
2021/10/16 07:31:24;;;;;;;0.60;0.60;;;;;;;9.29;47.23;98355.13;5030658;28;20072;-65
2021/10/16 07:33:51;;;;;;;0.60;0.47;;;;;;;9.07;47.64;98365.84;5035398;28;20042;-67
2021/10/16 07:36:16;;;;;;;0.20;0.20;;;;;;;9.00;47.81;98359.63;5035864;28;20136;-65
2021/10/16 07:38:42;;;;;;;0.25;0.25;;;;;;;9.18;47.27;98374.31;5033859;28;20207;-66
2021/10/16 07:41:08;;;;;;;0.20;0.20;;;;;;;9.45;46.65;98371.91;5033911;28;20096;-67
2021/10/16 07:43:34;;;;;;;0.17;0.17;;;;;;;9.71;46.42;98369.78;5031101;28;20113;-68
2021/10/16 07:45:59;;;;;;;0.30;0.30;;;;;;;9.91;45.68;98369.38;5034474;28;20077;-67
2021/10/16 07:48:25;;;;;;;0.20;0.20;;;;;;;10.04;45.83;98369.13;5034968;28;20071;-64
2021/10/16 07:50:53;;;;;;;5.07;0.95;;;;;;;10.09;45.51;98371.16;5034281;28;20046;-64
2021/10/16 07:53:18;;;;;;;0.28;0.28;;;;;;;10.11;45.87;98378.03;5033149;28;20042;-67
2021/10/16 07:55:44;;;;;;;0.20;0.20;;;;;;;10.10;45.62;98368.16;5034983;28;20614;-63
2021/10/16 07:58:10;;;;;;;0.20;0.20;;;;;;;10.16;45.71;98367.19;5033245;28;20419;-65
2021/10/16 08:00:36;;;;;;;0.25;0.25;;;;;;;10.14;45.75;98379.47;5031969;28;20044;-64
2021/10/16 08:03:01;;;;;;;0.30;0.30;;;;;;;10.15;45.63;98376.47;5029014;28;20512;-67
2021/10/16 08:05:27;;;;;;;0.20;0.20;;;;;;;10.15;45.85;98370.16;5030089;28;20184;-65
2021/10/16 08:07:53;;;;;;;0.20;0.20;;;;;;;10.10;45.92;98373.66;5012300;28;20068;-67
2021/10/16 08:10:20;;;;;;;2.17;0.93;;;;;;;10.12;45.84;98359.69;5011433;28;20505;-67
2021/10/16 08:12:46;;;;;;;0.20;0.20;;;;;;;10.14;45.93;98385.81;5018117;28;20116;-66
2021/10/16 08:15:12;;;;;;;0.30;0.30;;;;;;;10.11;45.94;98372.53;5012436;28;20081;-67
2021/10/16 08:17:38;;;;;;;0.50;0.50;;;;;;;10.04;46.33;98376.50;5010796;28;20132;-66
2021/10/16 08:20:04;;;;;;;0.88;0.73;;;;;;;9.91;46.33;98366.63;5013891;28;20046;-65
2021/10/16 08:22:31;;;;;;;0.20;0.20;;;;;;;9.94;46.26;98380.72;5013538;28;20048;-67
2021/10/16 08:24:57;;;;;;;0.30;0.30;;;;;;;9.98;46.49;98365.44;5014948;28;20934;-67
2021/10/16 08:27:22;;;;;;;0.40;0.40;;;;;;;9.86;46.42;98372.84;5006075;28;20037;-66
2021/10/16 08:29:49;;;;;;;0.20;0.20;;;;;;;9.78;46.71;98359.53;5016214;28;20038;-70
2021/10/16 08:32:15;;;;;;;0.30;0.30;;;;;;;9.68;46.74;98379.31;5019312;28;20523;-67
2021/10/16 08:34:41;;;;;;;0.20;0.20;;;;;;;9.61;47.02;98390.41;5026224;28;20100;-66
2021/10/16 08:37:06;;;;;;;0.30;0.30;;;;;;;9.59;47.05;98389.81;5024540;28;20037;-65
2021/10/16 08:39:32;;;;;;;0.30;0.30;;;;;;;9.63;47.09;98390.19;5017791;28;20071;-64
2021/10/16 08:41:58;;;;;;;0.20;0.20;;;;;;;9.63;46.78;98388.25;5024161;28;20069;-66
2021/10/16 08:44:24;;;;;;;0.68;0.57;;;;;;;9.67;46.58;98388.59;5014034;28;20042;-67
2021/10/16 08:46:53;;;;;;;0.20;0.20;;;;;;;9.67;46.68;98388.59;5012998;28;20049;-62
2021/10/16 08:49:21;;;;;;;0.30;0.30;;;;;;;9.75;46.80;98385.50;5025135;28;20049;-68
2021/10/16 08:51:47;;;;;;;0.20;0.20;;;;;;;9.82;46.53;98396.38;5017732;28;20100;-68
2021/10/16 08:54:12;;;;;;;3.72;0.30;;;;;;;9.89;46.41;98380.59;5022670;28;20053;-65
2021/10/16 08:56:38;;;;;;;0.38;0.38;;;;;;;10.06;46.20;98377.94;5013260;28;20072;-67
2021/10/16 08:59:04;;;;;;;0.20;0.20;;;;;;;10.11;46.17;98385.44;5026087;28;20420;-68
2021/10/16 09:01:30;;;;;;;0.32;0.32;;;;;;;10.11;45.96;98380.78;5022268;28;20052;-67
2021/10/16 09:03:57;;;;;;;0.28;0.28;;;;;;;10.16;46.26;98386.38;5022442;28;20049;-69
2021/10/16 09:06:30;;;;;;;0.40;0.40;;;;;;;10.23;46.17;98382.66;5040084;28;20111;-69
2021/10/16 09:09:03;;;;;;;0.52;0.20;;;;;;;10.27;45.99;98381.09;5012419;28;20052;-68
2021/10/16 09:11:35;;;;;;;0.20;0.20;;;;;;;10.27;46.26;98381.09;5029481;28;20049;-66
2021/10/16 09:14:18;;;;;;;0.30;0.30;;;;;;;10.22;46.19;98381.84;5029408;28;20045;-68
2021/10/16 09:16:45;;;;;;;0.20;0.20;;;;;;;10.20;46.35;98391.38;5029759;28;21100;-68
2021/10/16 09:19:14;;;;;;;0.20;0.20;;;;;;;10.26;46.32;98396.75;5043722;28;20043;-66
2021/10/16 09:22:04;;;;;;;3.13;0.30;;;;;;;10.28;46.11;98383.59;5042350;28;20041;-67
2021/10/16 09:24:47;;;;;;;0.28;0.28;;;;;;;10.22;46.21;98381.84;5041973;28;20045;-68
2021/10/16 09:27:19;;;;;;;0.20;0.20;;;;;;;10.19;46.51;98385.06;5042052;28;20554;-67
2021/10/16 09:29:51;;;;;;;0.35;0.30;;;;;;;10.20;46.38;98381.22;5048586;28;20167;-71
2021/10/16 09:32:23;;;;;;;0.20;0.20;;;;;;;10.18;46.57;98384.22;5034877;28;20051;-67
2021/10/16 09:34:58;;;;;;;0.10;0.10;;;;;;;10.23;46.31;98393.63;5043318;28;20522;-67
2021/10/16 09:37:23;;;;;;;0.40;0.40;;;;;;;10.20;46.35;98388.63;5032747;28;20147;-68
2021/10/16 09:39:49;;;;;;;0.17;0.17;;;;;;;10.14;46.39;98394.03;5044228;28;20127;-67
2021/10/16 09:42:40;;;;;;;0.20;0.20;;;;;;;10.13;46.60;98389.63;5053508;28;20041;-68
2021/10/16 09:45:08;;;;;;;0.20;0.20;;;;;;;10.08;46.72;98388.66;5029736;28;20045;-66
2021/10/16 09:47:35;;;;;;;0.20;0.20;;;;;;;9.97;46.90;98390.38;5015431;28;20084;-68
2021/10/16 09:50:06;;;;;;;0.10;0.10;;;;;;;9.94;46.89;98388.13;5049999;28;20120;-64
2021/10/16 09:52:40;;;;;;;0.30;0.30;;;;;;;9.87;46.92;98395.63;5052608;28;20037;-65
2021/10/16 09:55:12;;;;;;;0.20;0.20;;;;;;;9.83;46.95;98398.00;5037965;28;20037;-64
2021/10/16 09:57:40;;;;;;;0.13;0.13;;;;;;;9.79;47.24;98386.69;5038178;28;20073;-64
2021/10/16 10:00:07;;;;;;;0.10;0.10;;;;;;;9.77;47.33;98394.31;5040175;28;20048;-65
2021/10/16 10:02:33;;;;;;;0.10;0.10;;;;;;;9.76;47.20;98392.66;5051865;28;20048;-66
2021/10/16 10:05:02;;;;;;;0.10;0.10;;;;;;;9.70;47.29;98404.59;5052629;28;20076;-67
2021/10/16 10:07:31;;;;;;;1.77;0.40;;;;;;;9.71;47.34;98400.75;5042239;28;20107;-67
2021/10/16 10:09:58;;;;;;;0.10;0.10;;;;;;;9.75;47.21;98403.88;5041715;28;20045;-69
2021/10/16 10:12:28;;;;;;;0.20;0.20;;;;;;;9.73;47.01;98403.25;5046558;28;20136;-66
2021/10/16 10:14:55;;;;;;;0.10;0.10;;;;;;;9.72;47.03;98405.19;5036680;28;20045;-67
2021/10/16 10:17:30;;;;;;;0.38;0.38;;;;;;;9.72;47.14;98398.88;5021717;28;20583;-67
2021/10/16 10:20:06;;;;;;;0.20;0.20;;;;;;;9.64;47.23;98402.78;5046900;28;20041;-67
2021/10/16 10:22:34;;;;;;;0.20;0.20;;;;;;;9.60;47.24;98421.63;5045229;28;20048;-69
2021/10/16 10:25:01;;;;;;;0.20;0.20;;;;;;;9.58;47.44;98429.25;5035784;28;20038;-70
2021/10/16 10:27:41;;;;;;;0.25;0.25;;;;;;;9.51;47.51;98430.44;5043285;28;20037;-68
2021/10/16 10:30:36;;;;;;;2.25;0.28;;;;;;;9.50;47.63;98413.16;5047694;28;20033;-69
2021/10/16 10:33:19;;;;;;;0.20;0.20;;;;;;;9.44;48.01;98414.94;5038976;28;20037;-65
2021/10/16 10:36:03;;;;;;;0.20;0.20;;;;;;;9.34;47.90;98416.63;5047583;28;20041;-67
2021/10/16 10:38:33;;;;;;;0.25;0.25;;;;;;;9.18;48.35;98429.09;5041458;28;20044;-67
2021/10/16 10:41:24;;;;;;;0.35;0.35;;;;;;;9.06;48.42;98426.31;5037451;28;20049;-65
2021/10/16 10:43:54;;;;;;;0.10;0.10;;;;;;;8.97;48.45;98428.56;5039065;28;20042;-66
2021/10/16 10:46:27;;;;;;;0.20;0.20;;;;;;;8.97;48.55;98431.31;5041974;28;20037;-64
2021/10/16 10:48:53;;;;;;;0.20;0.20;;;;;;;9.02;48.33;98436.06;5032558;28;20420;-67
2021/10/16 10:51:39;;;;;;;0.75;0.75;;;;;;;9.09;48.23;98429.41;5034708;28;20036;-66
2021/10/16 10:54:15;;;;;;;0.30;0.30;;;;;;;9.14;48.19;98433.38;5051909;28;20048;-66
2021/10/16 10:56:44;;;;;;;0.22;0.22;;;;;;;9.11;48.19;98430.03;5033717;28;20041;-65
2021/10/16 10:59:12;;;;;;;0.43;0.43;;;;;;;9.08;48.24;98436.00;5033116;28;20207;-66
2021/10/16 11:01:54;;;;;;;0.20;0.20;;;;;;;9.07;48.64;98436.22;5031790;28;20053;-64
2021/10/16 11:04:45;;;;;;;0.20;0.20;;;;;;;9.05;48.62;98430.94;5042946;28;20053;-67
2021/10/16 11:07:14;;;;;;;0.60;0.20;;;;;;;9.02;48.50;98434.16;5038473;28;20532;-65
2021/10/16 11:09:42;;;;;;;0.40;0.40;;;;;;;9.01;48.62;98434.41;5042711;28;20048;-65
2021/10/16 11:12:09;;;;;;;0.20;0.20;;;;;;;9.00;48.75;98421.78;5051777;28;20225;-64
2021/10/16 11:14:37;;;;;;;0.20;0.20;;;;;;;9.01;48.61;98437.13;5040523;28;20487;-66
2021/10/16 11:17:16;;;;;;;0.30;0.30;;;;;;;9.00;48.81;98439.06;5031663;28;20041;-65
2021/10/16 11:19:47;;;;;;;0.30;0.30;;;;;;;8.99;48.96;98439.28;5030748;28;20124;-66
2021/10/16 11:22:13;;;;;;;0.22;0.22;;;;;;;8.95;49.11;98436.16;5031245;28;20054;-66
2021/10/16 11:24:39;;;;;;;0.22;0.22;;;;;;;8.87;48.91;98434.59;5012701;28;20096;-66
2021/10/16 11:27:05;;;;;;;0.20;0.20;;;;;;;8.84;49.25;98443.28;5031595;28;20508;-67
2021/10/16 11:29:33;;;;;;;0.20;0.20;;;;;;;8.81;49.07;98430.06;5038227;28;20041;-65
2021/10/16 11:32:22;;;;;;;0.20;0.20;;;;;;;8.74;49.19;98440.25;5041261;28;20499;-66
2021/10/16 11:34:55;;;;;;;0.10;0.10;;;;;;;8.70;49.49;98439.91;5030838;28;20097;-66
2021/10/16 11:37:39;;;;;;;0.30;0.30;;;;;;;8.71;49.14;98440.72;5032316;28;20045;-67
2021/10/16 11:40:08;;;;;;;0.20;0.20;;;;;;;8.68;49.39;98433.81;5051435;28;20040;-65
2021/10/16 11:42:36;;;;;;;0.32;0.32;;;;;;;8.70;49.32;98452.75;5050809;28;20051;-66